createdAt,value
2023-02-01T00:02:05.956Z,99848.50
2023-02-01T00:04:33.920Z,99839.63
2023-02-01T00:07:02.258Z,99846.34
2023-02-01T00:09:30.249Z,99849.53
2023-02-01T00:12:00.419Z,99848.56
2023-02-01T00:14:29.925Z,99851.94
2023-02-01T00:16:57.893Z,99853.88
2023-02-01T00:19:25.835Z,99860.03
2023-02-01T00:21:53.810Z,99856.41
2023-02-01T00:24:21.730Z,99840.72
2023-02-01T00:26:49.772Z,99853.59
2023-02-01T00:29:19.116Z,99853.59
2023-02-01T00:31:48.446Z,99863.44
2023-02-01T00:34:17.412Z,99861.50
2023-02-01T00:36:45.614Z,99861.13
2023-02-01T00:39:13.634Z,99858.13
2023-02-01T00:41:41.905Z,99864.31
2023-02-01T00:44:09.901Z,99854.50
2023-02-01T00:46:37.863Z,99861.97
2023-02-01T00:49:08.308Z,99853.97
2023-02-01T00:51:36.290Z,99850.63
2023-02-01T00:54:05.163Z,99849.78
2023-02-01T00:56:33.132Z,99851.88
2023-02-01T00:59:01.084Z,99850.88
2023-02-01T01:01:29.157Z,99846.53
2023-02-01T01:03:57.759Z,99845.28
2023-02-01T01:06:27.892Z,99843.63
2023-02-01T01:08:55.946Z,99841.50
2023-02-01T01:11:24.925Z,99839.72
2023-02-01T01:13:53.545Z,99841.13
2023-02-01T01:16:21.818Z,99850.06
2023-02-01T01:18:49.840Z,99848.66
2023-02-01T01:21:18.231Z,99853.69
2023-02-01T01:23:48.103Z,99858.50
2023-02-01T01:26:17.040Z,99860.19
2023-02-01T01:28:45.064Z,99863.53
2023-02-01T01:31:13.340Z,99853.88
2023-02-01T01:33:41.368Z,99850.97
2023-02-01T01:36:11.139Z,99849.56
2023-02-01T01:38:39.142Z,99847.06
2023-02-01T01:41:08.472Z,99857.53
2023-02-01T01:43:50.251Z,99855.13
2023-02-01T01:46:19.793Z,99849.94
2023-02-01T01:48:48.159Z,99853.00
2023-02-01T01:51:16.295Z,99859.31
2023-02-01T01:53:46.048Z,99863.47
2023-02-01T01:56:15.348Z,99855.09
2023-02-01T01:58:43.737Z,99864.91
2023-02-01T02:01:11.717Z,99859.31
2023-02-01T02:03:41.338Z,99863.22
2023-02-01T02:06:15.022Z,99864.91
2023-02-01T02:08:42.983Z,99859.66
2023-02-01T02:11:12.085Z,99862.13
2023-02-01T02:13:42.679Z,99861.00
2023-02-01T02:16:33.511Z,99864.06
2023-02-01T02:19:20.871Z,99850.88
2023-02-01T02:21:59.556Z,99859.91
2023-02-01T02:25:05.659Z,99863.28
2023-02-01T02:27:40.672Z,99861.84
2023-02-01T02:30:36.725Z,99863.28
2023-02-01T02:33:41.567Z,99869.44
2023-02-01T02:36:12.625Z,99866.91
2023-02-01T02:38:44.126Z,99866.59
2023-02-01T02:41:36.760Z,99863.34
2023-02-01T02:44:28.287Z,99867.97
2023-02-01T02:47:13.880Z,99873.75
2023-02-01T02:49:42.806Z,99876.22
2023-02-01T02:52:31.576Z,99883.09
2023-02-01T02:54:59.557Z,99873.69
2023-02-01T02:57:46.001Z,99877.91
2023-02-01T03:00:34.367Z,99873.44
2023-02-01T03:03:19.622Z,99876.09
2023-02-01T03:05:48.673Z,99874.16
2023-02-01T03:08:18.453Z,99878.22
2023-02-01T03:10:57.450Z,99880.69
2023-02-01T03:13:28.916Z,99877.38
2023-02-01T03:16:00.907Z,99891.06
2023-02-01T03:18:30.976Z,99886.72
2023-02-01T03:20:59.171Z,99888.84
2023-02-01T03:23:30.189Z,99879.06
2023-02-01T03:25:58.172Z,99893.19
2023-02-01T03:28:26.120Z,99896.09
2023-02-01T03:30:54.170Z,99889.94
2023-02-01T03:33:23.791Z,99894.44
2023-02-01T03:35:56.181Z,99879.13
2023-02-01T03:38:25.492Z,99892.22
2023-02-01T03:40:58.374Z,99894.63
2023-02-01T03:43:26.331Z,99900.06
2023-02-01T03:45:56.989Z,99897.78
2023-02-01T03:48:24.986Z,99901.28
2023-02-01T03:50:54.863Z,99900.06
2023-02-01T03:53:24.163Z,99902.84
2023-02-01T03:55:52.325Z,99895.47
2023-02-01T03:58:22.177Z,99906.53
2023-02-01T04:00:53.053Z,99898.97
2023-02-01T04:03:22.660Z,99905.16
2023-02-01T04:05:50.653Z,99908.28
2023-02-01T04:08:18.656Z,99908.88
2023-02-01T04:10:46.921Z,99905.09
2023-02-01T04:13:14.905Z,99901.19
2023-02-01T04:15:44.244Z,99913.06
2023-02-01T04:18:12.202Z,99903.88
2023-02-01T04:20:40.199Z,99912.56
2023-02-01T04:23:08.136Z,99917.19
2023-02-01T04:25:36.067Z,99914.53
2023-02-01T04:28:04.050Z,99914.66
2023-02-01T04:30:32.068Z,99913.94
2023-02-01T04:33:01.448Z,99912.00
2023-02-01T04:35:29.386Z,99918.66
2023-02-01T04:37:57.366Z,99912.34
2023-02-01T04:40:25.601Z,99910.47
2023-02-01T04:42:53.615Z,99904.66
2023-02-01T04:45:21.590Z,99904.16
2023-02-01T04:47:49.775Z,99908.28
2023-02-01T04:50:19.483Z,99907.97
2023-02-01T04:52:47.446Z,99913.09
2023-02-01T04:55:15.467Z,99913.97
2023-02-01T04:57:43.443Z,99921.75
2023-02-01T05:00:12.748Z,99924.19
2023-02-01T05:02:40.740Z,99922.28
2023-02-01T05:05:09.221Z,99927.50
2023-02-01T05:07:38.543Z,99922.84
2023-02-01T05:10:07.006Z,99922.13
2023-02-01T05:12:52.514Z,99918.19
2023-02-01T05:15:20.494Z,99926.72
2023-02-01T05:17:48.462Z,99922.66
2023-02-01T05:20:16.582Z,99926.50
2023-02-01T05:22:45.936Z,99923.38
2023-02-01T05:25:13.933Z,99923.16
2023-02-01T05:27:41.919Z,99931.34
2023-02-01T05:30:11.040Z,99930.38
2023-02-01T05:32:39.037Z,99937.84
2023-02-01T05:35:07.925Z,99931.09
2023-02-01T05:37:35.910Z,99942.41
2023-02-01T05:40:05.689Z,99945.56
2023-02-01T05:42:33.660Z,99940.00
2023-02-01T05:45:01.551Z,99950.84
2023-02-01T05:47:29.712Z,99947.47
2023-02-01T05:49:57.654Z,99945.03
2023-02-01T05:52:25.634Z,99946.75
2023-02-01T05:54:54.103Z,99948.91
2023-02-01T05:57:23.415Z,99956.28
2023-02-01T05:59:51.431Z,99955.19
2023-02-01T06:02:19.587Z,99949.66
2023-02-01T06:04:47.612Z,99959.28
2023-02-01T06:07:15.578Z,99943.84
2023-02-01T06:09:43.548Z,99946.03
2023-02-01T06:12:11.522Z,99950.34
2023-02-01T06:14:40.833Z,99954.19
2023-02-01T06:17:09.421Z,99952.72
2023-02-01T06:19:37.350Z,99955.22
2023-02-01T06:22:07.296Z,99955.91
2023-02-01T06:24:35.239Z,99960.31
2023-02-01T06:27:03.172Z,99956.53
2023-02-01T06:29:31.144Z,99958.31
2023-02-01T06:32:00.607Z,99955.09
2023-02-01T06:34:28.657Z,99950.09
2023-02-01T06:36:57.016Z,99951.00
2023-02-01T06:39:24.971Z,99939.09
2023-02-01T06:41:52.894Z,99947.25
2023-02-01T06:44:21.889Z,99946.44
2023-02-01T06:46:49.865Z,99939.22
2023-02-01T06:49:19.483Z,99946.84
2023-02-01T06:51:47.465Z,99944.63
2023-02-01T06:54:15.404Z,99948.13
2023-02-01T06:56:43.387Z,99947.06
2023-02-01T06:59:12.149Z,99951.41
2023-02-01T07:01:40.127Z,99951.03
2023-02-01T07:04:08.059Z,99960.16
2023-02-01T07:06:37.404Z,99961.56
2023-02-01T07:09:05.315Z,99963.97
2023-02-01T07:11:33.231Z,99958.78
2023-02-01T07:14:01.164Z,99962.44
2023-02-01T07:16:30.143Z,99965.81
2023-02-01T07:18:58.206Z,99971.44
2023-02-01T07:21:26.168Z,99968.94
2023-02-01T07:23:55.535Z,99964.28
2023-02-01T07:26:23.537Z,99974.69
2023-02-01T07:28:51.486Z,99978.75
2023-02-01T07:31:21.961Z,99971.72
2023-02-01T07:33:52.503Z,99971.97
2023-02-01T07:36:20.752Z,99970.56
2023-02-01T07:38:49.113Z,99968.56
2023-02-01T07:41:18.519Z,99968.31
2023-02-01T07:43:47.161Z,99979.22
2023-02-01T07:46:16.441Z,99973.56
2023-02-01T07:48:44.520Z,99975.19
2023-02-01T07:51:13.706Z,99971.09
2023-02-01T07:53:41.773Z,99964.44
2023-02-01T07:56:12.879Z,99979.69
2023-02-01T07:58:42.303Z,99975.53
2023-02-01T08:01:21.943Z,99954.94
2023-02-01T08:03:50.180Z,99958.59
2023-02-01T08:06:18.106Z,99963.59
2023-02-01T08:08:47.763Z,99957.47
2023-02-01T08:11:15.907Z,99952.66
2023-02-01T08:13:45.223Z,99939.44
2023-02-01T08:16:13.981Z,99945.31
2023-02-01T08:18:42.216Z,99943.81
2023-02-01T08:21:11.043Z,99958.31
2023-02-01T08:23:39.317Z,99963.38
2023-02-01T08:26:08.985Z,99962.56
2023-02-01T08:28:37.994Z,99960.44
2023-02-01T08:31:08.881Z,99963.63
2023-02-01T08:33:38.052Z,99972.78
2023-02-01T08:36:06.701Z,99957.41
2023-02-01T08:38:34.662Z,99974.38
2023-02-01T08:41:06.920Z,99963.69
2023-02-01T08:43:34.922Z,99970.13
2023-02-01T08:46:02.870Z,99960.38
2023-02-01T08:48:32.292Z,99973.78
2023-02-01T08:51:02.652Z,99961.00
2023-02-01T08:53:30.554Z,99963.97
2023-02-01T08:55:58.527Z,99967.44
2023-02-01T08:58:26.531Z,99965.06
2023-02-01T09:00:54.518Z,99965.41
2023-02-01T09:03:22.514Z,99967.44
2023-02-01T09:05:54.209Z,99965.09
2023-02-01T09:08:22.337Z,99966.75
2023-02-01T09:10:50.325Z,99957.53
2023-02-01T09:13:18.272Z,99961.19
2023-02-01T09:15:46.572Z,99966.03
2023-02-01T09:18:14.734Z,99954.72
2023-02-01T09:20:42.681Z,99955.56
2023-02-01T09:23:11.952Z,99953.88
2023-02-01T09:25:39.943Z,99949.31
2023-02-01T09:28:10.084Z,99937.69
2023-02-01T09:30:38.296Z,99942.75
2023-02-01T09:33:06.343Z,99937.38
2023-02-01T09:35:34.302Z,99931.66
2023-02-01T09:38:02.287Z,99924.31
2023-02-01T09:40:31.669Z,99928.84
2023-02-01T09:43:14.628Z,99920.00
2023-02-01T09:45:47.122Z,99923.00
2023-02-01T09:48:17.639Z,99915.00
2023-02-01T09:50:47.227Z,99914.97
2023-02-01T09:53:17.961Z,99907.72
2023-02-01T09:55:48.609Z,99919.03
2023-02-01T09:58:18.323Z,99908.66
2023-02-01T10:00:49.013Z,99905.03
2023-02-01T10:03:17.022Z,99899.19
2023-02-01T10:05:54.131Z,99888.44
2023-02-01T10:08:27.366Z,99889.47
2023-02-01T10:10:58.043Z,99882.09
2023-02-01T10:13:35.917Z,99857.59
2023-02-01T10:16:16.219Z,99866.63
2023-02-01T10:19:12.291Z,99863.69
2023-02-01T10:21:46.079Z,99854.94
2023-02-01T10:24:42.143Z,99838.69
2023-02-01T10:27:19.361Z,99856.53
2023-02-01T10:29:48.659Z,99857.97
2023-02-01T10:32:17.847Z,99855.72
2023-02-01T10:34:47.853Z,99847.88
2023-02-01T10:37:22.612Z,99820.00
2023-02-01T10:39:50.846Z,99831.53
2023-02-01T10:42:21.021Z,99835.94
2023-02-01T10:44:49.254Z,99833.06
2023-02-01T10:47:17.279Z,99834.09
2023-02-01T10:49:47.960Z,99830.50
2023-02-01T10:52:17.588Z,99829.72
2023-02-01T10:54:45.625Z,99817.84
2023-02-01T10:57:22.088Z,99832.22
2023-02-01T10:59:51.395Z,99818.81
2023-02-01T11:02:23.255Z,99825.16
2023-02-01T11:04:51.193Z,99816.06
2023-02-01T11:07:20.136Z,99817.03
2023-02-01T11:09:51.486Z,99801.72
2023-02-01T11:12:29.593Z,99810.78
2023-02-01T11:15:02.167Z,99795.91
2023-02-01T11:17:31.588Z,99796.06
2023-02-01T11:20:00.936Z,99795.34
2023-02-01T11:22:30.439Z,99789.50
2023-02-01T11:24:58.880Z,99770.56
2023-02-01T11:27:28.060Z,99761.47
2023-02-01T11:30:00.940Z,99775.09
2023-02-01T11:32:28.989Z,99770.09
2023-02-01T11:34:59.923Z,99756.72
2023-02-01T11:37:29.843Z,99762.38
2023-02-01T11:39:58.460Z,99744.47
2023-02-01T11:42:26.556Z,99747.34
2023-02-01T11:44:54.664Z,99737.19
2023-02-01T11:47:28.282Z,99738.78
2023-02-01T11:49:56.963Z,99740.78
2023-02-01T11:52:46.468Z,99737.66
2023-02-01T11:55:27.209Z,99733.06
2023-02-01T11:58:01.702Z,99738.63
2023-02-01T12:00:46.491Z,99723.75
2023-02-01T12:03:36.618Z,99703.75
2023-02-01T12:06:09.101Z,99704.47
2023-02-01T12:08:54.140Z,99715.81
2023-02-01T12:11:34.427Z,99705.50
2023-02-01T12:14:08.946Z,99710.50
2023-02-01T12:16:42.726Z,99704.81
2023-02-01T12:19:26.152Z,99706.66
2023-02-01T12:21:59.365Z,99700.41
2023-02-01T12:24:50.985Z,99704.72
2023-02-01T12:27:48.822Z,99691.47
2023-02-01T12:30:32.477Z,99707.72
2023-02-01T12:33:03.393Z,99698.63
2023-02-01T12:35:43.418Z,99704.59
2023-02-01T12:38:25.310Z,99692.41
2023-02-01T12:41:07.766Z,99693.59
2023-02-01T12:43:40.734Z,99689.97
2023-02-01T12:46:11.294Z,99693.94
2023-02-01T12:48:42.998Z,99710.09
2023-02-01T12:51:14.571Z,99696.72
2023-02-01T12:53:48.031Z,99706.16
2023-02-01T12:56:18.371Z,99701.00
2023-02-01T12:58:48.039Z,99689.63
2023-02-01T13:01:19.317Z,99683.28
2023-02-01T13:03:58.799Z,99694.31
2023-02-01T13:06:29.969Z,99696.00
2023-02-01T13:09:00.719Z,99689.97
2023-02-01T13:11:30.339Z,99682.25
2023-02-01T13:14:02.704Z,99699.66
2023-02-01T13:16:32.570Z,99717.56
2023-02-01T13:19:06.155Z,99708.03
2023-02-01T13:21:36.523Z,99692.63
2023-02-01T13:24:04.592Z,99708.38
2023-02-01T13:26:32.582Z,99706.38
2023-02-01T13:29:01.317Z,99714.75
2023-02-01T13:31:54.776Z,99688.44
2023-02-01T13:34:57.586Z,99717.41
2023-02-01T13:37:33.818Z,99720.25
2023-02-01T13:40:22.923Z,99714.22
2023-02-01T13:42:52.069Z,99710.69
2023-02-01T13:45:22.130Z,99716.38
2023-02-01T13:47:53.898Z,99713.53
2023-02-01T13:50:24.138Z,99711.72
2023-02-01T13:52:56.245Z,99710.72
2023-02-01T13:55:36.864Z,99711.91
2023-02-01T13:58:08.128Z,99701.50
2023-02-01T14:00:37.307Z,99706.19
2023-02-01T14:03:17.071Z,99708.41
2023-02-01T14:06:36.611Z,99718.44
2023-02-01T14:09:20.668Z,99705.69
2023-02-01T14:11:50.162Z,99703.38
2023-02-01T14:14:45.270Z,99709.72
2023-02-01T14:17:38.054Z,99695.00
2023-02-01T14:20:52.050Z,99695.97
2023-02-01T14:23:23.352Z,99694.28
2023-02-01T14:26:04.573Z,99692.97
2023-02-01T14:28:32.584Z,99700.16
2023-02-01T14:31:00.801Z,99698.66
2023-02-01T14:33:29.993Z,99707.50
2023-02-01T14:36:07.383Z,99712.34
2023-02-01T14:38:35.431Z,99717.91
2023-02-01T14:41:29.928Z,99721.75
2023-02-01T14:44:27.396Z,99722.03
2023-02-01T14:47:32.917Z,99733.44
2023-02-01T14:50:23.694Z,99716.50
2023-02-01T14:53:00.295Z,99720.84
2023-02-01T14:55:31.393Z,99735.06
2023-02-01T14:58:00.716Z,99737.41
2023-02-01T15:00:29.702Z,99738.06
2023-02-01T15:03:14.071Z,99742.03
2023-02-01T15:05:42.046Z,99743.00
2023-02-01T15:08:16.221Z,99745.66
2023-02-01T15:10:46.292Z,99734.25
2023-02-01T15:13:23.153Z,99752.25
2023-02-01T15:16:07.858Z,99747.16
2023-02-01T15:18:35.797Z,99751.19
2023-02-01T15:21:26.349Z,99758.47
2023-02-01T15:23:52.598Z,99757.78
2023-02-01T15:26:30.131Z,99758.41
2023-02-01T15:29:00.119Z,99758.34
2023-02-01T15:31:36.767Z,99745.63
2023-02-01T15:34:04.942Z,99739.91
2023-02-01T15:36:33.346Z,99745.19
2023-02-01T15:39:19.640Z,99751.91
2023-02-01T15:41:49.532Z,99745.50
2023-02-01T15:44:22.528Z,99733.44
2023-02-01T15:46:51.840Z,99749.78
2023-02-01T15:49:27.248Z,99746.94
2023-02-01T15:51:55.221Z,99745.34
2023-02-01T15:54:26.346Z,99747.66
2023-02-01T15:56:55.475Z,99749.50
2023-02-01T15:59:26.579Z,99751.25
2023-02-01T16:01:54.601Z,99751.88
2023-02-01T16:04:24.060Z,99753.53
2023-02-01T16:06:52.630Z,99758.34
2023-02-01T16:09:21.339Z,99764.91
2023-02-01T16:11:51.561Z,99769.03
2023-02-01T16:14:19.498Z,99767.66
2023-02-01T16:16:48.814Z,99760.03
2023-02-01T16:19:16.748Z,99776.91
2023-02-01T16:21:44.901Z,99773.25
2023-02-01T16:24:12.861Z,99773.69
2023-02-01T16:26:40.959Z,99768.13
2023-02-01T16:29:09.451Z,99760.72
2023-02-01T16:31:38.613Z,99768.41
2023-02-01T16:34:07.983Z,99765.38
2023-02-01T16:36:35.992Z,99765.97
2023-02-01T16:39:04.732Z,99765.97
2023-02-01T16:41:32.676Z,99759.56
2023-02-01T16:44:00.607Z,99758.97
2023-02-01T16:46:29.824Z,99721.94
2023-02-01T16:48:58.712Z,99745.63
2023-02-01T16:51:29.125Z,99758.75
2023-02-01T16:53:57.647Z,99760.72
2023-02-01T16:56:27.243Z,99756.00
2023-02-01T16:58:55.611Z,99754.25
2023-02-01T17:01:23.630Z,99752.00
2023-02-01T17:03:51.788Z,99752.81
2023-02-01T17:06:22.621Z,99754.22
2023-02-01T17:08:53.143Z,99767.72
2023-02-01T17:11:21.258Z,99768.00
2023-02-01T17:13:49.223Z,99770.81
2023-02-01T17:16:27.022Z,99770.72
2023-02-01T17:18:58.003Z,99771.91
2023-02-01T17:21:26.631Z,99769.81
2023-02-01T17:23:56.344Z,99768.47
2023-02-01T17:26:24.339Z,99770.03
2023-02-01T17:28:52.341Z,99773.00
2023-02-01T17:31:20.435Z,99774.97
2023-02-01T17:33:48.474Z,99768.28
2023-02-01T17:36:17.899Z,99780.75
2023-02-01T17:38:53.611Z,99769.94
2023-02-01T17:41:29.368Z,99769.72
2023-02-01T17:43:57.359Z,99765.69
2023-02-01T17:46:27.289Z,99769.63
2023-02-01T17:48:55.556Z,99766.03
2023-02-01T17:51:25.080Z,99772.72
2023-02-01T17:53:53.031Z,99769.88
2023-02-01T17:56:22.369Z,99771.31
2023-02-01T17:58:51.917Z,99783.94
2023-02-01T18:01:20.889Z,99751.06
2023-02-01T18:03:48.919Z,99779.22
2023-02-01T18:06:17.431Z,99774.47
2023-02-01T18:08:45.450Z,99766.06
2023-02-01T18:11:14.556Z,99780.19
2023-02-01T18:13:42.608Z,99781.47
2023-02-01T18:16:19.133Z,99775.84
2023-02-01T18:18:47.291Z,99775.00
2023-02-01T18:21:15.376Z,99784.84
2023-02-01T18:23:43.369Z,99782.16
2023-02-01T18:26:11.934Z,99784.84
2023-02-01T18:28:41.050Z,99786.34
2023-02-01T18:31:09.117Z,99800.56
2023-02-01T18:33:38.476Z,99798.88
2023-02-01T18:36:06.843Z,99798.97
2023-02-01T18:38:34.786Z,99794.53
2023-02-01T18:41:05.172Z,99797.88
2023-02-01T18:43:33.193Z,99804.09
2023-02-01T18:46:01.360Z,99800.34
2023-02-01T18:48:29.559Z,99797.69
2023-02-01T18:50:59.005Z,99792.66
2023-02-01T18:53:28.153Z,99791.66
2023-02-01T18:55:56.321Z,99782.25
2023-02-01T18:58:26.479Z,99799.94
2023-02-01T19:00:54.937Z,99791.56
2023-02-01T19:03:26.222Z,99795.22
2023-02-01T19:05:56.131Z,99794.09
2023-02-01T19:08:25.929Z,99789.03
2023-02-01T19:10:53.974Z,99780.91
2023-02-01T19:13:24.639Z,99782.59
2023-02-01T19:15:52.693Z,99749.59
2023-02-01T19:18:21.582Z,99795.22
2023-02-01T19:20:50.830Z,99796.09
2023-02-01T19:23:19.756Z,99792.44
2023-02-01T19:25:49.299Z,99786.22
2023-02-01T19:28:17.345Z,99790.59
2023-02-01T19:30:45.408Z,99782.25
2023-02-01T19:33:13.434Z,99789.59
2023-02-01T19:35:41.417Z,99782.25
2023-02-01T19:38:09.999Z,99775.72
2023-02-01T19:40:38.505Z,99790.16
2023-02-01T19:43:07.865Z,99779.63
2023-02-01T19:45:35.979Z,99787.91
2023-02-01T19:48:07.493Z,99783.47
2023-02-01T19:50:35.560Z,99787.09
2023-02-01T19:53:03.525Z,99783.75
2023-02-01T19:55:31.504Z,99781.53
2023-02-01T19:57:59.443Z,99773.69
2023-02-01T20:00:28.298Z,99783.75
2023-02-01T20:02:56.309Z,99781.78
2023-02-01T20:05:24.653Z,99778.66
2023-02-01T20:07:52.817Z,99774.47
2023-02-01T20:10:20.790Z,99779.91
2023-02-01T20:12:49.411Z,99772.19
2023-02-01T20:15:17.618Z,99772.19
2023-02-01T20:17:46.896Z,99770.13
2023-02-01T20:20:15.480Z,99786.41
2023-02-01T20:22:45.126Z,99784.84
2023-02-01T20:25:13.063Z,99766.63
2023-02-01T20:27:41.863Z,99789.00
2023-02-01T20:30:11.074Z,99782.81
2023-02-01T20:32:39.029Z,99790.97
2023-02-01T20:35:09.571Z,99789.88
2023-02-01T20:37:37.873Z,99788.34
2023-02-01T20:40:06.414Z,99794.13
2023-02-01T20:42:34.552Z,99798.63
2023-02-01T20:45:02.489Z,99799.03
2023-02-01T20:47:30.413Z,99798.94
2023-02-01T20:49:58.401Z,99792.91
2023-02-01T20:52:27.766Z,99797.13
2023-02-01T20:54:55.742Z,99792.25
2023-02-01T20:57:23.721Z,99788.84
2023-02-01T20:59:51.665Z,99787.72
2023-02-01T21:02:19.716Z,99789.38
2023-02-01T21:04:47.703Z,99792.91
2023-02-01T21:07:15.690Z,99796.81
2023-02-01T21:09:45.152Z,99791.03
2023-02-01T21:12:13.538Z,99797.19
2023-02-01T21:14:41.535Z,99797.13
2023-02-01T21:17:09.517Z,99797.09
2023-02-01T21:19:43.809Z,99796.75
2023-02-01T21:22:11.933Z,99798.69
2023-02-01T21:24:40.852Z,99797.63
2023-02-01T21:27:10.345Z,99793.16
2023-02-01T21:29:38.310Z,99795.88
2023-02-01T21:32:06.960Z,99796.06
2023-02-01T21:34:34.913Z,99787.22
2023-02-01T21:37:03.022Z,99790.28
2023-02-01T21:39:31.005Z,99792.28
2023-02-01T21:42:18.263Z,99782.31
2023-02-01T21:44:48.441Z,99776.84
2023-02-01T21:47:17.559Z,99777.72
2023-02-01T21:49:45.903Z,99777.34
2023-02-01T21:52:14.061Z,99786.34
2023-02-01T21:54:42.022Z,99777.72
2023-02-01T21:57:12.097Z,99783.22
2023-02-01T21:59:40.297Z,99784.31
2023-02-01T22:02:12.863Z,99784.69
2023-02-01T22:04:40.886Z,99788.91
2023-02-01T22:07:08.867Z,99786.94
2023-02-01T22:09:36.804Z,99770.22
2023-02-01T22:12:05.148Z,99771.22
2023-02-01T22:14:33.535Z,99761.69
2023-02-01T22:17:01.641Z,99753.81
2023-02-01T22:19:30.901Z,99767.47
2023-02-01T22:21:58.880Z,99775.56
2023-02-01T22:24:26.965Z,99785.25
2023-02-01T22:26:55.093Z,99790.28
2023-02-01T22:29:23.847Z,99794.63
2023-02-01T22:31:51.814Z,99790.47
2023-02-01T22:34:19.822Z,99795.50
2023-02-01T22:36:49.770Z,99788.16
2023-02-01T22:39:17.761Z,99789.78
2023-02-01T22:41:45.693Z,99783.81
2023-02-01T22:44:13.676Z,99777.56
2023-02-01T22:46:41.636Z,99777.28
2023-02-01T22:49:09.604Z,99762.31
2023-02-01T22:51:37.527Z,99759.81
2023-02-01T22:54:06.940Z,99759.63
2023-02-01T22:56:35.897Z,99753.31
2023-02-01T22:59:05.807Z,99740.94
2023-02-01T23:01:34.179Z,99733.88
2023-02-01T23:04:03.961Z,99739.78
2023-02-01T23:06:32.169Z,99732.59
2023-02-01T23:09:01.067Z,99732.59
2023-02-01T23:11:30.582Z,99738.03
2023-02-01T23:13:58.566Z,99715.16
2023-02-01T23:16:26.531Z,99739.59
2023-02-01T23:18:54.478Z,99745.09
2023-02-01T23:21:23.090Z,99737.84
2023-02-01T23:23:53.043Z,99741.50
2023-02-01T23:26:21.046Z,99745.31
2023-02-01T23:28:52.286Z,99744.16
2023-02-01T23:31:20.468Z,99740.44
2023-02-01T23:33:49.113Z,99745.91
2023-02-01T23:36:17.698Z,99751.63
2023-02-01T23:38:45.871Z,99751.31
2023-02-01T23:41:17.408Z,99755.38
2023-02-01T23:44:01.001Z,99749.06
2023-02-01T23:46:32.700Z,99745.75
2023-02-01T23:49:01.088Z,99750.09
2023-02-01T23:51:29.437Z,99751.78
2023-02-01T23:53:57.444Z,99748.72
2023-02-01T23:56:26.355Z,99753.06
2023-02-01T23:58:54.576Z,99743.72
